sensor_id;sensor_type;location;lat;lon;timestamp;pressure;altitude;pressure_sealevel;temperature
20733;BMP180;10527;52.124;5.196;2023-03-14T00:01:19;98723.00;;;21.50
20733;BMP180;10527;52.124;5.196;2023-03-14T00:03:49;98712.00;;;21.50
20733;BMP180;10527;52.124;5.196;2023-03-14T00:06:18;98719.00;;;21.50
20733;BMP180;10527;52.124;5.196;2023-03-14T00:08:45;98707.00;;;21.50
20733;BMP180;10527;52.124;5.196;2023-03-14T00:11:17;98713.00;;;21.50
20733;BMP180;10527;52.124;5.196;2023-03-14T00:13:48;98712.00;;;21.50
20733;BMP180;10527;52.124;5.196;2023-03-14T00:16:15;98716.00;;;21.50
20733;BMP180;10527;52.124;5.196;2023-03-14T00:18:43;98712.00;;;21.50
20733;BMP180;10527;52.124;5.196;2023-03-14T00:21:11;98708.00;;;21.50
20733;BMP180;10527;52.124;5.196;2023-03-14T00:23:40;98706.00;;;21.60
20733;BMP180;10527;52.124;5.196;2023-03-14T00:26:17;98705.00;;;21.60
20733;BMP180;10527;52.124;5.196;2023-03-14T00:28:45;98707.00;;;21.60
20733;BMP180;10527;52.124;5.196;2023-03-14T00:31:15;98703.00;;;21.60
20733;BMP180;10527;52.124;5.196;2023-03-14T00:33:44;98717.00;;;21.50
20733;BMP180;10527;52.124;5.196;2023-03-14T00:36:16;98722.00;;;21.50
20733;BMP180;10527;52.124;5.196;2023-03-14T00:38:45;98706.00;;;21.50
20733;BMP180;10527;52.124;5.196;2023-03-14T00:41:16;98709.00;;;21.40
20733;BMP180;10527;52.124;5.196;2023-03-14T00:43:43;98711.00;;;21.40
20733;BMP180;10527;52.124;5.196;2023-03-14T00:46:11;98739.00;;;21.30
20733;BMP180;10527;52.124;5.196;2023-03-14T00:48:41;98721.00;;;21.20
20733;BMP180;10527;52.124;5.196;2023-03-14T00:51:10;98720.00;;;21.20
20733;BMP180;10527;52.124;5.196;2023-03-14T00:53:41;98726.00;;;21.20
20733;BMP180;10527;52.124;5.196;2023-03-14T00:56:11;98719.00;;;21.10
20733;BMP180;10527;52.124;5.196;2023-03-14T00:58:39;98723.00;;;21.10
20733;BMP180;10527;52.124;5.196;2023-03-14T01:01:09;98706.00;;;21.10
20733;BMP180;10527;52.124;5.196;2023-03-14T01:03:37;98713.00;;;21.10
20733;BMP180;10527;52.124;5.196;2023-03-14T01:06:28;98725.00;;;21.10
20733;BMP180;10527;52.124;5.196;2023-03-14T01:08:59;98723.00;;;21.10
20733;BMP180;10527;52.124;5.196;2023-03-14T01:11:37;98730.00;;;21.10
20733;BMP180;10527;52.124;5.196;2023-03-14T01:14:04;98724.00;;;21.10
20733;BMP180;10527;52.124;5.196;2023-03-14T01:16:35;98723.00;;;21.00
20733;BMP180;10527;52.124;5.196;2023-03-14T01:19:02;98723.00;;;21.00
20733;BMP180;10527;52.124;5.196;2023-03-14T01:21:33;98714.00;;;20.90
20733;BMP180;10527;52.124;5.196;2023-03-14T01:24:03;98716.00;;;20.90
20733;BMP180;10527;52.124;5.196;2023-03-14T01:26:33;98719.00;;;20.80
20733;BMP180;10527;52.124;5.196;2023-03-14T01:29:03;98724.00;;;20.80
20733;BMP180;10527;52.124;5.196;2023-03-14T01:31:37;98728.00;;;20.70
20733;BMP180;10527;52.124;5.196;2023-03-14T01:34:07;98731.00;;;20.70
20733;BMP180;10527;52.124;5.196;2023-03-14T01:36:34;98728.00;;;20.60
20733;BMP180;10527;52.124;5.196;2023-03-14T01:39:02;98720.00;;;20.60
20733;BMP180;10527;52.124;5.196;2023-03-14T01:41:32;98710.00;;;20.50
20733;BMP180;10527;52.124;5.196;2023-03-14T01:43:59;98710.00;;;20.50
20733;BMP180;10527;52.124;5.196;2023-03-14T01:46:39;98711.00;;;20.50
20733;BMP180;10527;52.124;5.196;2023-03-14T01:49:33;98711.00;;;20.60
20733;BMP180;10527;52.124;5.196;2023-03-14T01:52:28;98704.00;;;20.50
20733;BMP180;10527;52.124;5.196;2023-03-14T01:55:07;98707.00;;;20.50
20733;BMP180;10527;52.124;5.196;2023-03-14T01:57:51;98708.00;;;20.60
20733;BMP180;10527;52.124;5.196;2023-03-14T02:00:22;98692.00;;;20.60
20733;BMP180;10527;52.124;5.196;2023-03-14T02:02:58;98700.00;;;20.60
20733;BMP180;10527;52.124;5.196;2023-03-14T02:05:34;98689.00;;;20.60
20733;BMP180;10527;52.124;5.196;2023-03-14T02:08:06;98693.00;;;20.60
20733;BMP180;10527;52.124;5.196;2023-03-14T02:10:43;98685.00;;;20.70
20733;BMP180;10527;52.124;5.196;2023-03-14T02:13:11;98682.00;;;20.60
20733;BMP180;10527;52.124;5.196;2023-03-14T02:15:41;98683.00;;;20.60
20733;BMP180;10527;52.124;5.196;2023-03-14T02:18:09;98668.00;;;20.70
20733;BMP180;10527;52.124;5.196;2023-03-14T02:21:00;98685.00;;;20.70
20733;BMP180;10527;52.124;5.196;2023-03-14T02:23:38;98681.00;;;20.70
20733;BMP180;10527;52.124;5.196;2023-03-14T02:26:17;98670.00;;;20.60
20733;BMP180;10527;52.124;5.196;2023-03-14T02:28:53;98663.00;;;20.60
20733;BMP180;10527;52.124;5.196;2023-03-14T02:31:22;98667.00;;;20.60
20733;BMP180;10527;52.124;5.196;2023-03-14T02:33:52;98656.00;;;20.60
20733;BMP180;10527;52.124;5.196;2023-03-14T02:36:20;98664.00;;;20.50
20733;BMP180;10527;52.124;5.196;2023-03-14T02:41:30;98675.00;;;20.50
20733;BMP180;10527;52.124;5.196;2023-03-14T02:43:57;98664.00;;;20.50
20733;BMP180;10527;52.124;5.196;2023-03-14T02:46:31;98658.00;;;20.50
20733;BMP180;10527;52.124;5.196;2023-03-14T02:49:03;98651.00;;;20.50
20733;BMP180;10527;52.124;5.196;2023-03-14T02:51:32;98644.00;;;20.50
20733;BMP180;10527;52.124;5.196;2023-03-14T02:53:59;98656.00;;;20.50
20733;BMP180;10527;52.124;5.196;2023-03-14T02:56:26;98655.00;;;20.50
20733;BMP180;10527;52.124;5.196;2023-03-14T02:58:53;98656.00;;;20.50
20733;BMP180;10527;52.124;5.196;2023-03-14T03:01:20;98651.00;;;20.50
20733;BMP180;10527;52.124;5.196;2023-03-14T03:03:46;98649.00;;;20.50
20733;BMP180;10527;52.124;5.196;2023-03-14T03:06:16;98651.00;;;20.50
20733;BMP180;10527;52.124;5.196;2023-03-14T03:08:43;98648.00;;;20.50
20733;BMP180;10527;52.124;5.196;2023-03-14T03:11:10;98653.00;;;20.50
20733;BMP180;10527;52.124;5.196;2023-03-14T03:13:37;98650.00;;;20.50
20733;BMP180;10527;52.124;5.196;2023-03-14T03:16:05;98639.00;;;20.50
20733;BMP180;10527;52.124;5.196;2023-03-14T03:18:32;98646.00;;;20.50
20733;BMP180;10527;52.124;5.196;2023-03-14T03:21:03;98650.00;;;20.60
20733;BMP180;10527;52.124;5.196;2023-03-14T03:23:31;98639.00;;;20.60
20733;BMP180;10527;52.124;5.196;2023-03-14T03:26:09;98634.00;;;20.60
20733;BMP180;10527;52.124;5.196;2023-03-14T03:28:37;98633.00;;;20.60
20733;BMP180;10527;52.124;5.196;2023-03-14T03:31:10;98629.00;;;20.60
20733;BMP180;10527;52.124;5.196;2023-03-14T03:33:38;98618.00;;;20.60
20733;BMP180;10527;52.124;5.196;2023-03-14T03:36:06;98618.00;;;20.60
20733;BMP180;10527;52.124;5.196;2023-03-14T03:38:33;98627.00;;;20.60
20733;BMP180;10527;52.124;5.196;2023-03-14T03:41:04;98624.00;;;20.60
20733;BMP180;10527;52.124;5.196;2023-03-14T03:43:31;98637.00;;;20.60
20733;BMP180;10527;52.124;5.196;2023-03-14T03:46:07;98633.00;;;20.60
20733;BMP180;10527;52.124;5.196;2023-03-14T03:48:35;98623.00;;;20.60
20733;BMP180;10527;52.124;5.196;2023-03-14T03:51:05;98633.00;;;20.60
20733;BMP180;10527;52.124;5.196;2023-03-14T03:53:32;98624.00;;;20.60
20733;BMP180;10527;52.124;5.196;2023-03-14T03:55:59;98627.00;;;20.60
20733;BMP180;10527;52.124;5.196;2023-03-14T03:58:27;98626.00;;;20.60
20733;BMP180;10527;52.124;5.196;2023-03-14T04:00:54;98619.00;;;20.60
20733;BMP180;10527;52.124;5.196;2023-03-14T04:03:21;98620.00;;;20.60
20733;BMP180;10527;52.124;5.196;2023-03-14T04:06:11;98622.00;;;20.60
20733;BMP180;10527;52.124;5.196;2023-03-14T04:08:41;98621.00;;;20.60
20733;BMP180;10527;52.124;5.196;2023-03-14T04:11:17;98617.00;;;20.60
20733;BMP180;10527;52.124;5.196;2023-03-14T04:13:44;98623.00;;;20.60
20733;BMP180;10527;52.124;5.196;2023-03-14T04:16:18;98619.00;;;20.60
20733;BMP180;10527;52.124;5.196;2023-03-14T04:18:45;98628.00;;;20.60
20733;BMP180;10527;52.124;5.196;2023-03-14T04:21:12;98618.00;;;20.60
20733;BMP180;10527;52.124;5.196;2023-03-14T04:23:39;98625.00;;;20.60
20733;BMP180;10527;52.124;5.196;2023-03-14T04:26:09;98622.00;;;20.60
20733;BMP180;10527;52.124;5.196;2023-03-14T04:28:36;98625.00;;;20.60
20733;BMP180;10527;52.124;5.196;2023-03-14T04:31:17;98636.00;;;20.70
20733;BMP180;10527;52.124;5.196;2023-03-14T04:33:46;98633.00;;;20.60
20733;BMP180;10527;52.124;5.196;2023-03-14T04:36:13;98628.00;;;20.70
20733;BMP180;10527;52.124;5.196;2023-03-14T04:38:44;98629.00;;;20.70
20733;BMP180;10527;52.124;5.196;2023-03-14T04:41:12;98624.00;;;20.70
20733;BMP180;10527;52.124;5.196;2023-03-14T04:43:38;98614.00;;;20.70
20733;BMP180;10527;52.124;5.196;2023-03-14T04:46:06;98617.00;;;20.70
20733;BMP180;10527;52.124;5.196;2023-03-14T04:48:33;98608.00;;;20.70
20733;BMP180;10527;52.124;5.196;2023-03-14T04:50:59;98594.00;;;20.70
20733;BMP180;10527;52.124;5.196;2023-03-14T04:53:26;98599.00;;;20.70
20733;BMP180;10527;52.124;5.196;2023-03-14T04:55:55;98607.00;;;20.70
20733;BMP180;10527;52.124;5.196;2023-03-14T04:58:23;98617.00;;;20.70
20733;BMP180;10527;52.124;5.196;2023-03-14T05:00:53;98601.00;;;20.70
20733;BMP180;10527;52.124;5.196;2023-03-14T05:03:23;98612.00;;;20.70
20733;BMP180;10527;52.124;5.196;2023-03-14T05:05:49;98599.00;;;20.70
20733;BMP180;10527;52.124;5.196;2023-03-14T05:08:16;98606.00;;;20.70
20733;BMP180;10527;52.124;5.196;2023-03-14T05:10:43;98601.00;;;20.70
20733;BMP180;10527;52.124;5.196;2023-03-14T05:13:10;98597.00;;;20.60
20733;BMP180;10527;52.124;5.196;2023-03-14T05:15:36;98602.00;;;20.60
20733;BMP180;10527;52.124;5.196;2023-03-14T05:18:03;98602.00;;;20.60
20733;BMP180;10527;52.124;5.196;2023-03-14T05:20:30;98595.00;;;20.60
20733;BMP180;10527;52.124;5.196;2023-03-14T05:22:57;98591.00;;;20.50
20733;BMP180;10527;52.124;5.196;2023-03-14T05:25:24;98588.00;;;20.50
20733;BMP180;10527;52.124;5.196;2023-03-14T05:27:54;98587.00;;;20.50
20733;BMP180;10527;52.124;5.196;2023-03-14T05:30:22;98588.00;;;20.50
20733;BMP180;10527;52.124;5.196;2023-03-14T05:32:51;98576.00;;;20.50
20733;BMP180;10527;52.124;5.196;2023-03-14T05:35:18;98575.00;;;20.40
20733;BMP180;10527;52.124;5.196;2023-03-14T05:37:45;98573.00;;;20.40
20733;BMP180;10527;52.124;5.196;2023-03-14T05:40:12;98581.00;;;20.40
20733;BMP180;10527;52.124;5.196;2023-03-14T05:42:41;98580.00;;;20.40
20733;BMP180;10527;52.124;5.196;2023-03-14T05:45:08;98581.00;;;20.40
20733;BMP180;10527;52.124;5.196;2023-03-14T05:47:35;98583.00;;;20.30
20733;BMP180;10527;52.124;5.196;2023-03-14T05:50:02;98581.00;;;20.30
20733;BMP180;10527;52.124;5.196;2023-03-14T05:52:31;98577.00;;;20.30
20733;BMP180;10527;52.124;5.196;2023-03-14T05:54:58;98584.00;;;20.30
20733;BMP180;10527;52.124;5.196;2023-03-14T05:57:25;98589.00;;;20.30
20733;BMP180;10527;52.124;5.196;2023-03-14T05:59:55;98580.00;;;20.30
20733;BMP180;10527;52.124;5.196;2023-03-14T06:02:21;98586.00;;;20.30
20733;BMP180;10527;52.124;5.196;2023-03-14T06:04:48;98586.00;;;20.30
20733;BMP180;10527;52.124;5.196;2023-03-14T06:07:17;98602.00;;;20.30
20733;BMP180;10527;52.124;5.196;2023-03-14T06:09:56;98602.00;;;20.30
20733;BMP180;10527;52.124;5.196;2023-03-14T06:12:22;98607.00;;;20.30
20733;BMP180;10527;52.124;5.196;2023-03-14T06:14:49;98597.00;;;20.30
20733;BMP180;10527;52.124;5.196;2023-03-14T06:17:17;98609.00;;;20.30
20733;BMP180;10527;52.124;5.196;2023-03-14T06:19:57;98653.00;;;20.30
20733;BMP180;10527;52.124;5.196;2023-03-14T06:22:24;98647.00;;;20.20
20733;BMP180;10527;52.124;5.196;2023-03-14T06:24:51;98654.00;;;20.20
20733;BMP180;10527;52.124;5.196;2023-03-14T06:27:18;98663.00;;;20.10
20733;BMP180;10527;52.124;5.196;2023-03-14T06:29:44;98679.00;;;20.00
20733;BMP180;10527;52.124;5.196;2023-03-14T06:32:11;98688.00;;;19.90
20733;BMP180;10527;52.124;5.196;2023-03-14T06:34:38;98685.00;;;19.80
20733;BMP180;10527;52.124;5.196;2023-03-14T06:37:12;98710.00;;;19.70
20733;BMP180;10527;52.124;5.196;2023-03-14T06:39:39;98715.00;;;19.60
20733;BMP180;10527;52.124;5.196;2023-03-14T06:42:11;98721.00;;;19.50
20733;BMP180;10527;52.124;5.196;2023-03-14T06:44:47;98724.00;;;19.40
20733;BMP180;10527;52.124;5.196;2023-03-14T06:47:14;98733.00;;;19.40
20733;BMP180;10527;52.124;5.196;2023-03-14T06:49:41;98748.00;;;19.30
20733;BMP180;10527;52.124;5.196;2023-03-14T06:52:10;98753.00;;;19.30
20733;BMP180;10527;52.124;5.196;2023-03-14T06:54:37;98747.00;;;19.30
20733;BMP180;10527;52.124;5.196;2023-03-14T06:57:04;98752.00;;;19.20
20733;BMP180;10527;52.124;5.196;2023-03-14T06:59:32;98760.00;;;19.20
20733;BMP180;10527;52.124;5.196;2023-03-14T07:01:58;98771.00;;;19.20
20733;BMP180;10527;52.124;5.196;2023-03-14T07:04:25;98776.00;;;19.20
20733;BMP180;10527;52.124;5.196;2023-03-14T07:06:55;98779.00;;;19.20
20733;BMP180;10527;52.124;5.196;2023-03-14T07:09:25;98795.00;;;19.20
20733;BMP180;10527;52.124;5.196;2023-03-14T07:11:51;98795.00;;;19.20
20733;BMP180;10527;52.124;5.196;2023-03-14T07:14:18;98813.00;;;19.20
20733;BMP180;10527;52.124;5.196;2023-03-14T07:16:47;98821.00;;;19.10
20733;BMP180;10527;52.124;5.196;2023-03-14T07:19:14;98829.00;;;19.10
20733;BMP180;10527;52.124;5.196;2023-03-14T07:21:44;98844.00;;;19.00
20733;BMP180;10527;52.124;5.196;2023-03-14T07:24:11;98860.00;;;19.00
20733;BMP180;10527;52.124;5.196;2023-03-14T07:26:38;98869.00;;;19.00
20733;BMP180;10527;52.124;5.196;2023-03-14T07:29:05;98880.00;;;18.90
20733;BMP180;10527;52.124;5.196;2023-03-14T07:31:34;98885.00;;;18.90
20733;BMP180;10527;52.124;5.196;2023-03-14T07:34:13;98888.00;;;19.00
20733;BMP180;10527;52.124;5.196;2023-03-14T07:36:40;98904.00;;;18.90
20733;BMP180;10527;52.124;5.196;2023-03-14T07:39:07;98906.00;;;18.90
20733;BMP180;10527;52.124;5.196;2023-03-14T07:41:34;98919.00;;;18.80
20733;BMP180;10527;52.124;5.196;2023-03-14T07:44:01;98934.00;;;18.80
20733;BMP180;10527;52.124;5.196;2023-03-14T07:46:31;98944.00;;;18.70
20733;BMP180;10527;52.124;5.196;2023-03-14T07:48:58;98950.00;;;18.60
20733;BMP180;10527;52.124;5.196;2023-03-14T07:51:25;98968.00;;;18.60
20733;BMP180;10527;52.124;5.196;2023-03-14T07:53:52;98977.00;;;18.50
20733;BMP180;10527;52.124;5.196;2023-03-14T07:56:19;98994.00;;;18.40
20733;BMP180;10527;52.124;5.196;2023-03-14T07:58:45;98986.00;;;18.40
20733;BMP180;10527;52.124;5.196;2023-03-14T08:01:15;99014.00;;;18.30
20733;BMP180;10527;52.124;5.196;2023-03-14T08:03:45;99047.00;;;18.30
20733;BMP180;10527;52.124;5.196;2023-03-14T08:06:12;99070.00;;;18.20
20733;BMP180;10527;52.124;5.196;2023-03-14T08:08:39;99059.00;;;18.00
20733;BMP180;10527;52.124;5.196;2023-03-14T08:11:07;99085.00;;;17.90
20733;BMP180;10527;52.124;5.196;2023-03-14T08:13:40;99096.00;;;17.70
20733;BMP180;10527;52.124;5.196;2023-03-14T08:16:10;99123.00;;;17.50
20733;BMP180;10527;52.124;5.196;2023-03-14T08:18:37;99117.00;;;17.30
20733;BMP180;10527;52.124;5.196;2023-03-14T08:21:04;99119.00;;;17.10
20733;BMP180;10527;52.124;5.196;2023-03-14T08:23:42;99142.00;;;17.10
20733;BMP180;10527;52.124;5.196;2023-03-14T08:26:09;99155.00;;;17.00
20733;BMP180;10527;52.124;5.196;2023-03-14T08:28:38;99162.00;;;16.90
20733;BMP180;10527;52.124;5.196;2023-03-14T08:31:05;99170.00;;;16.90
20733;BMP180;10527;52.124;5.196;2023-03-14T08:33:33;99178.00;;;16.80
20733;BMP180;10527;52.124;5.196;2023-03-14T08:36:01;99186.00;;;16.80
20733;BMP180;10527;52.124;5.196;2023-03-14T08:38:28;99200.00;;;16.70
20733;BMP180;10527;52.124;5.196;2023-03-14T08:41:00;99212.00;;;16.70
20733;BMP180;10527;52.124;5.196;2023-03-14T08:43:28;99213.00;;;16.70
20733;BMP180;10527;52.124;5.196;2023-03-14T08:46:00;99229.00;;;16.80
20733;BMP180;10527;52.124;5.196;2023-03-14T08:48:30;99236.00;;;16.80
20733;BMP180;10527;52.124;5.196;2023-03-14T08:51:12;99251.00;;;16.80
20733;BMP180;10527;52.124;5.196;2023-03-14T08:53:41;99262.00;;;16.80
20733;BMP180;10527;52.124;5.196;2023-03-14T08:56:08;99270.00;;;16.80
20733;BMP180;10527;52.124;5.196;2023-03-14T08:58:37;99273.00;;;16.90
20733;BMP180;10527;52.124;5.196;2023-03-14T09:01:10;99285.00;;;16.90
20733;BMP180;10527;52.124;5.196;2023-03-14T09:03:38;99286.00;;;16.90
20733;BMP180;10527;52.124;5.196;2023-03-14T09:06:09;99306.00;;;17.00
20733;BMP180;10527;52.124;5.196;2023-03-14T09:08:39;99321.00;;;17.00
20733;BMP180;10527;52.124;5.196;2023-03-14T09:11:08;99336.00;;;17.00
20733;BMP180;10527;52.124;5.196;2023-03-14T09:13:36;99335.00;;;17.00
20733;BMP180;10527;52.124;5.196;2023-03-14T09:16:08;99342.00;;;17.00
20733;BMP180;10527;52.124;5.196;2023-03-14T09:18:35;99349.00;;;17.00
20733;BMP180;10527;52.124;5.196;2023-03-14T09:21:11;99367.00;;;17.10
20733;BMP180;10527;52.124;5.196;2023-03-14T09:23:39;99376.00;;;17.20
20733;BMP180;10527;52.124;5.196;2023-03-14T09:26:09;99385.00;;;17.20
20733;BMP180;10527;52.124;5.196;2023-03-14T09:28:36;99399.00;;;17.20
20733;BMP180;10527;52.124;5.196;2023-03-14T09:31:09;99416.00;;;17.20
20733;BMP180;10527;52.124;5.196;2023-03-14T09:33:37;99434.00;;;17.30
20733;BMP180;10527;52.124;5.196;2023-03-14T09:36:04;99440.00;;;17.30
20733;BMP180;10527;52.124;5.196;2023-03-14T09:38:34;99433.00;;;17.30
20733;BMP180;10527;52.124;5.196;2023-03-14T09:41:12;99440.00;;;17.20
20733;BMP180;10527;52.124;5.196;2023-03-14T09:43:45;99450.00;;;17.20
20733;BMP180;10527;52.124;5.196;2023-03-14T09:46:14;99463.00;;;17.20
20733;BMP180;10527;52.124;5.196;2023-03-14T09:48:43;99474.00;;;17.20
20733;BMP180;10527;52.124;5.196;2023-03-14T09:51:18;99485.00;;;17.20
20733;BMP180;10527;52.124;5.196;2023-03-14T09:53:50;99492.00;;;17.20
20733;BMP180;10527;52.124;5.196;2023-03-14T09:56:26;99495.00;;;17.20
20733;BMP180;10527;52.124;5.196;2023-03-14T09:59:05;99510.00;;;17.20
20733;BMP180;10527;52.124;5.196;2023-03-14T10:01:33;99518.00;;;17.20
20733;BMP180;10527;52.124;5.196;2023-03-14T10:04:18;99518.00;;;17.30
20733;BMP180;10527;52.124;5.196;2023-03-14T10:06:47;99556.00;;;17.30
20733;BMP180;10527;52.124;5.196;2023-03-14T10:09:21;99572.00;;;17.20
20733;BMP180;10527;52.124;5.196;2023-03-14T10:11:56;99563.00;;;17.10
20733;BMP180;10527;52.124;5.196;2023-03-14T10:14:36;99572.00;;;17.00
20733;BMP180;10527;52.124;5.196;2023-03-14T10:17:11;99593.00;;;17.00
20733;BMP180;10527;52.124;5.196;2023-03-14T10:19:58;99598.00;;;17.00
20733;BMP180;10527;52.124;5.196;2023-03-14T10:22:30;99606.00;;;16.90
20733;BMP180;10527;52.124;5.196;2023-03-14T10:25:06;99607.00;;;16.90
20733;BMP180;10527;52.124;5.196;2023-03-14T10:27:36;99614.00;;;16.90
20733;BMP180;10527;52.124;5.196;2023-03-14T10:30:13;99624.00;;;16.90
20733;BMP180;10527;52.124;5.196;2023-03-14T10:32:53;99631.00;;;16.90
20733;BMP180;10527;52.124;5.196;2023-03-14T10:35:22;99639.00;;;17.00
20733;BMP180;10527;52.124;5.196;2023-03-14T10:37:56;99650.00;;;17.10
20733;BMP180;10527;52.124;5.196;2023-03-14T10:40:54;99665.00;;;17.10
20733;BMP180;10527;52.124;5.196;2023-03-14T10:43:40;99682.00;;;17.20
20733;BMP180;10527;52.124;5.196;2023-03-14T10:46:20;99699.00;;;17.30
20733;BMP180;10527;52.124;5.196;2023-03-14T10:48:47;99711.00;;;17.30
20733;BMP180;10527;52.124;5.196;2023-03-14T10:51:25;99733.00;;;17.30
20733;BMP180;10527;52.124;5.196;2023-03-14T10:56:26;99743.00;;;17.20
20733;BMP180;10527;52.124;5.196;2023-03-14T10:58:57;99748.00;;;17.20
20733;BMP180;10527;52.124;5.196;2023-03-14T11:02:06;99750.00;;;17.30
20733;BMP180;10527;52.124;5.196;2023-03-14T11:05:11;99761.00;;;17.30
20733;BMP180;10527;52.124;5.196;2023-03-14T11:07:43;99780.00;;;17.30
20733;BMP180;10527;52.124;5.196;2023-03-14T11:13:26;99806.00;;;17.30
20733;BMP180;10527;52.124;5.196;2023-03-14T11:21:37;99823.00;;;17.40
20733;BMP180;10527;52.124;5.196;2023-03-14T11:27:54;99844.00;;;17.60
20733;BMP180;10527;52.124;5.196;2023-03-14T11:30:39;99870.00;;;17.60
20733;BMP180;10527;52.124;5.196;2023-03-14T11:33:16;99875.00;;;17.70
20733;BMP180;10527;52.124;5.196;2023-03-14T11:38:29;99884.00;;;17.90
20733;BMP180;10527;52.124;5.196;2023-03-14T11:40:59;99894.00;;;17.90
20733;BMP180;10527;52.124;5.196;2023-03-14T11:43:39;99888.00;;;18.00
20733;BMP180;10527;52.124;5.196;2023-03-14T11:46:25;99900.00;;;18.10
20733;BMP180;10527;52.124;5.196;2023-03-14T11:49:13;99915.00;;;18.20
20733;BMP180;10527;52.124;5.196;2023-03-14T11:51:47;99903.00;;;18.30
20733;BMP180;10527;52.124;5.196;2023-03-14T11:54:33;99925.00;;;18.30
20733;BMP180;10527;52.124;5.196;2023-03-14T11:57:12;99917.00;;;18.40
20733;BMP180;10527;52.124;5.196;2023-03-14T12:00:23;99938.00;;;18.40
20733;BMP180;10527;52.124;5.196;2023-03-14T12:03:39;99963.00;;;18.40
20733;BMP180;10527;52.124;5.196;2023-03-14T12:06:31;99964.00;;;18.40
20733;BMP180;10527;52.124;5.196;2023-03-14T12:09:08;99966.00;;;18.30
20733;BMP180;10527;52.124;5.196;2023-03-14T12:12:03;99972.00;;;18.30
20733;BMP180;10527;52.124;5.196;2023-03-14T12:14:36;99968.00;;;18.20
20733;BMP180;10527;52.124;5.196;2023-03-14T12:19:44;99982.00;;;18.20
20733;BMP180;10527;52.124;5.196;2023-03-14T12:22:43;99987.00;;;18.30
20733;BMP180;10527;52.124;5.196;2023-03-14T12:27:49;99985.00;;;18.40
20733;BMP180;10527;52.124;5.196;2023-03-14T12:30:42;100006.00;;;18.40
20733;BMP180;10527;52.124;5.196;2023-03-14T12:33:27;100003.00;;;18.40
20733;BMP180;10527;52.124;5.196;2023-03-14T12:36:03;100006.00;;;18.40
20733;BMP180;10527;52.124;5.196;2023-03-14T12:39:10;100011.00;;;18.50
20733;BMP180;10527;52.124;5.196;2023-03-14T12:41:43;99998.00;;;18.60
20733;BMP180;10527;52.124;5.196;2023-03-14T12:49:53;100030.00;;;18.80
20733;BMP180;10527;52.124;5.196;2023-03-14T12:55:24;100044.00;;;18.90
20733;BMP180;10527;52.124;5.196;2023-03-14T13:00:51;100075.00;;;18.90
20733;BMP180;10527;52.124;5.196;2023-03-14T13:03:25;100079.00;;;18.90
20733;BMP180;10527;52.124;5.196;2023-03-14T13:06:01;100088.00;;;18.90
20733;BMP180;10527;52.124;5.196;2023-03-14T13:08:48;100083.00;;;18.80
20733;BMP180;10527;52.124;5.196;2023-03-14T13:11:19;100099.00;;;18.80
20733;BMP180;10527;52.124;5.196;2023-03-14T13:13:57;100091.00;;;18.70
20733;BMP180;10527;52.124;5.196;2023-03-14T13:16:27;100107.00;;;18.70
20733;BMP180;10527;52.124;5.196;2023-03-14T13:19:11;100110.00;;;18.70
20733;BMP180;10527;52.124;5.196;2023-03-14T13:21:41;100122.00;;;18.70
20733;BMP180;10527;52.124;5.196;2023-03-14T13:24:22;100117.00;;;18.70
20733;BMP180;10527;52.124;5.196;2023-03-14T13:26:54;100133.00;;;18.60
20733;BMP180;10527;52.124;5.196;2023-03-14T13:29:25;100129.00;;;18.60
20733;BMP180;10527;52.124;5.196;2023-03-14T13:32:00;100147.00;;;18.60
20733;BMP180;10527;52.124;5.196;2023-03-14T13:34:34;100150.00;;;18.60
20733;BMP180;10527;52.124;5.196;2023-03-14T13:37:01;100159.00;;;18.50
20733;BMP180;10527;52.124;5.196;2023-03-14T13:39:29;100164.00;;;18.40
20733;BMP180;10527;52.124;5.196;2023-03-14T13:42:01;100165.00;;;18.40
20733;BMP180;10527;52.124;5.196;2023-03-14T13:44:33;100178.00;;;18.40
20733;BMP180;10527;52.124;5.196;2023-03-14T13:47:05;100176.00;;;18.40
20733;BMP180;10527;52.124;5.196;2023-03-14T13:49:39;100180.00;;;18.40
20733;BMP180;10527;52.124;5.196;2023-03-14T13:52:54;100184.00;;;18.50
20733;BMP180;10527;52.124;5.196;2023-03-14T13:55:24;100204.00;;;18.50
20733;BMP180;10527;52.124;5.196;2023-03-14T13:57:53;100225.00;;;18.50
20733;BMP180;10527;52.124;5.196;2023-03-14T14:00:27;100207.00;;;18.50
20733;BMP180;10527;52.124;5.196;2023-03-14T14:02:57;100211.00;;;18.40
20733;BMP180;10527;52.124;5.196;2023-03-14T14:05:31;100231.00;;;18.50
20733;BMP180;10527;52.124;5.196;2023-03-14T14:08:06;100238.00;;;18.50
20733;BMP180;10527;52.124;5.196;2023-03-14T14:10:36;100228.00;;;18.50
20733;BMP180;10527;52.124;5.196;2023-03-14T14:13:14;100256.00;;;18.50
20733;BMP180;10527;52.124;5.196;2023-03-14T14:15:47;100268.00;;;18.50
20733;BMP180;10527;52.124;5.196;2023-03-14T14:18:19;100266.00;;;18.40
20733;BMP180;10527;52.124;5.196;2023-03-14T14:20:49;100285.00;;;18.40
20733;BMP180;10527;52.124;5.196;2023-03-14T14:23:21;100269.00;;;18.30
20733;BMP180;10527;52.124;5.196;2023-03-14T14:25:52;100285.00;;;18.30
20733;BMP180;10527;52.124;5.196;2023-03-14T14:28:46;100291.00;;;18.30
20733;BMP180;10527;52.124;5.196;2023-03-14T14:31:23;100289.00;;;18.30
20733;BMP180;10527;52.124;5.196;2023-03-14T14:33:56;100308.00;;;18.20
20733;BMP180;10527;52.124;5.196;2023-03-14T14:36:27;100314.00;;;18.10
20733;BMP180;10527;52.124;5.196;2023-03-14T14:39:00;100316.00;;;18.10
20733;BMP180;10527;52.124;5.196;2023-03-14T14:41:34;100326.00;;;18.00
20733;BMP180;10527;52.124;5.196;2023-03-14T14:44:04;100317.00;;;18.00
20733;BMP180;10527;52.124;5.196;2023-03-14T14:46:34;100323.00;;;18.00
20733;BMP180;10527;52.124;5.196;2023-03-14T14:49:10;100335.00;;;18.00
20733;BMP180;10527;52.124;5.196;2023-03-14T14:51:49;100342.00;;;18.00
20733;BMP180;10527;52.124;5.196;2023-03-14T14:54:19;100352.00;;;18.00
20733;BMP180;10527;52.124;5.196;2023-03-14T14:57:04;100371.00;;;17.90
20733;BMP180;10527;52.124;5.196;2023-03-14T14:59:31;100371.00;;;17.90
20733;BMP180;10527;52.124;5.196;2023-03-14T15:02:04;100367.00;;;17.80
20733;BMP180;10527;52.124;5.196;2023-03-14T15:04:31;100391.00;;;17.90
20733;BMP180;10527;52.124;5.196;2023-03-14T15:06:58;100378.00;;;17.80
20733;BMP180;10527;52.124;5.196;2023-03-14T15:09:25;100381.00;;;17.90
20733;BMP180;10527;52.124;5.196;2023-03-14T15:11:52;100389.00;;;17.90